Badgingarra, Australia
Current Conditions -  °F | °C
As of 9:00 PM on Thursday 30 Oct 2014 (Local Time) from YPEA Reporting Station
Overcast Overcast  
Wind Chill: 64°   Ceiling: 4100
Heat Index: 64°   Visibility: 6mi
Dew Point: 50°   Wind: 13mph
Humidity: 59%   Direction: 230°SW
Pressure: 29.97"   Gusts: NA
Location:  30.4°S, 115.54°E
Report Text: YPEA 301300Z AUTO 23011KT 9999 // OVC041 18/10 Q1015
Loading
Personal Weather Stations






























Interactive Weather Map
Tropical Storm Tracking
New forecast layout! Learn more

10-Day Weather Forecast

Advertisements
Track Severe Weather on mobile